Terminal Aerodrome Forecast
Issued by NWS

Home | Current Version | Previous Version | Text Only | Print | Product List | Glossary On
Versions: 1 2 3 4 5 6 7 8 9 10 11 12 13 14 15 16 17
000
FTUS44 KJAN 251754
TAFHKS
TAF
KHKS 251754Z 2518/2618 14010KT P6SM VCTS SCT025 BKN035CB
     FM252000 16012KT P6SM VCSH BKN040
     FM261000 18013KT 4SM TSRA OVC008CB
     FM261300 16012KT P6SM VCSH BKN008 OVC015
     FM261600 17012KT P6SM VCSH BKN035=

USA.gov is the U.S. government's official web portal to all federal, state and local government web resources and services.